Time;durP1;ratioP1;P1;durP2;ratioP2;P2;SDS_P1;SDS_P2;PMS_P1;PMS_P2;Temp;Humidity;BMP_temperature;BMP_pressure;BME280_temperature;BME280_humidity;BME280_pressure;Samples;Min_cycle;Max_cycle;Signal;HPM_P1;HPM_P2
2023/10/30 00:01:45;;;;;;;1.88;1.10;;;23.30;68.40;;;;;;5091925;28;20036;-35
2023/10/30 00:04:11;;;;;;;1.50;1.00;;;23.30;68.50;;;;;;5095391;28;20052;-35
2023/10/30 00:06:37;;;;;;;1.47;1.23;;;23.30;68.50;;;;;;5092938;28;20948;-35
2023/10/30 00:09:04;;;;;;;1.10;1.00;;;23.30;68.40;;;;;;5099497;28;20028;-34
2023/10/30 00:11:30;;;;;;;1.30;0.90;;;23.30;68.40;;;;;;5100124;28;20052;-34
2023/10/30 00:13:56;;;;;;;1.70;1.20;;;23.30;68.40;;;;;;5097901;28;20070;-34
2023/10/30 00:16:22;;;;;;;1.48;1.00;;;23.20;68.40;;;;;;5094190;28;20088;-34
2023/10/30 00:18:49;;;;;;;2.50;1.20;;;23.30;68.40;;;;;;5102568;28;20032;-34
2023/10/30 00:21:15;;;;;;;1.10;1.00;;;23.20;68.30;;;;;;5094576;28;20103;-34
2023/10/30 00:23:42;;;;;;;1.58;1.02;;;23.20;68.30;;;;;;5105599;28;20040;-35
2023/10/30 00:26:08;;;;;;;1.30;1.02;;;23.20;68.20;;;;;;5101652;28;20032;-35
2023/10/30 00:28:34;;;;;;;1.40;1.07;;;23.20;68.20;;;;;;5102971;28;20032;-35
2023/10/30 00:31:01;;;;;;;1.38;0.80;;;23.20;68.10;;;;;;5094578;28;20081;-35
2023/10/30 00:33:27;;;;;;;1.15;1.05;;;23.20;68.10;;;;;;5102691;28;20093;-35
2023/10/30 00:35:54;;;;;;;1.20;1.10;;;23.20;68.10;;;;;;5096621;28;20031;-35
2023/10/30 00:38:20;;;;;;;1.33;1.10;;;23.20;68.10;;;;;;5097591;28;20966;-35
2023/10/30 00:40:46;;;;;;;0.90;0.80;;;23.20;68.10;;;;;;5097615;28;20021;-34
2023/10/30 00:43:12;;;;;;;1.05;0.90;;;23.10;68.10;;;;;;5100141;28;20059;-34
2023/10/30 00:45:39;;;;;;;1.10;1.00;;;23.20;68.10;;;;;;5097468;28;20038;-34
2023/10/30 00:48:05;;;;;;;1.30;1.08;;;23.10;68.10;;;;;;5095196;28;20097;-35
2023/10/30 00:50:32;;;;;;;1.10;1.00;;;23.10;68.10;;;;;;5092756;28;20068;-34
2023/10/30 00:52:58;;;;;;;1.30;1.20;;;23.10;68.10;;;;;;5103301;28;20036;-35
2023/10/30 00:55:25;;;;;;;1.80;1.30;;;23.10;68.10;;;;;;5100895;28;20044;-34
2023/10/30 00:57:51;;;;;;;1.63;1.20;;;23.10;68.10;;;;;;5096657;28;20731;-34
2023/10/30 01:00:17;;;;;;;1.70;1.20;;;23.10;68.10;;;;;;5101152;28;20276;-35
2023/10/30 01:02:44;;;;;;;1.80;1.20;;;23.10;68.10;;;;;;5094997;28;20020;-35
2023/10/30 01:05:11;;;;;;;1.77;1.08;;;23.10;68.10;;;;;;5094165;28;20032;-34
2023/10/30 01:07:37;;;;;;;1.52;1.20;;;23.00;68.00;;;;;;5088974;28;20096;-34
2023/10/30 01:10:04;;;;;;;1.10;1.00;;;23.00;68.00;;;;;;5084905;28;20033;-34
2023/10/30 01:12:30;;;;;;;1.50;1.13;;;23.00;68.00;;;;;;5102308;28;20051;-35
2023/10/30 01:14:56;;;;;;;1.67;1.13;;;23.00;68.00;;;;;;5099696;28;20033;-35
2023/10/30 01:17:22;;;;;;;1.45;1.10;;;23.00;68.00;;;;;;5094533;28;20059;-35
2023/10/30 01:19:49;;;;;;;1.80;1.08;;;23.00;68.00;;;;;;5102885;28;20059;-35
2023/10/30 01:22:15;;;;;;;0.98;0.98;;;23.00;68.00;;;;;;5105320;28;20089;-34
2023/10/30 01:24:42;;;;;;;1.38;1.13;;;22.90;68.00;;;;;;5091050;28;20040;-34
2023/10/30 01:27:08;;;;;;;1.20;1.00;;;22.90;68.00;;;;;;5100706;28;20024;-34
2023/10/30 01:29:34;;;;;;;1.50;1.23;;;22.90;68.00;;;;;;5094542;28;20034;-35
2023/10/30 01:32:00;;;;;;;1.63;1.20;;;22.90;68.00;;;;;;5101844;28;20083;-35
2023/10/30 01:34:26;;;;;;;1.30;1.20;;;22.90;68.00;;;;;;5094071;28;20054;-35
2023/10/30 01:36:53;;;;;;;1.47;1.37;;;22.90;68.00;;;;;;5100478;28;20031;-35
2023/10/30 01:39:19;;;;;;;1.25;1.15;;;22.90;68.00;;;;;;5093884;28;20065;-34
2023/10/30 01:41:45;;;;;;;1.42;1.20;;;22.80;67.90;;;;;;5094996;28;20031;-35
2023/10/30 01:44:11;;;;;;;1.25;1.00;;;22.80;68.00;;;;;;5086730;28;20056;-35
2023/10/30 01:46:38;;;;;;;1.95;1.50;;;22.80;68.00;;;;;;5096746;28;20111;-35
2023/10/30 01:49:04;;;;;;;1.30;1.20;;;22.80;68.00;;;;;;5093168;28;20033;-35
2023/10/30 01:51:30;;;;;;;1.53;1.13;;;22.80;68.00;;;;;;5101995;28;20403;-33
2023/10/30 01:53:56;;;;;;;1.55;1.45;;;22.80;68.00;;;;;;5105168;28;20280;-35
2023/10/30 01:56:24;;;;;;;1.27;1.17;;;22.80;68.00;;;;;;5086866;28;20020;-35
2023/10/30 01:58:50;;;;;;;1.70;1.30;;;22.80;68.00;;;;;;5084287;28;20033;-35
2023/10/30 02:01:16;;;;;;;1.42;1.23;;;22.70;68.00;;;;;;5092854;28;20042;-34
2023/10/30 02:03:43;;;;;;;1.20;1.10;;;22.70;68.00;;;;;;5101924;28;20451;-34
2023/10/30 02:06:09;;;;;;;1.30;1.13;;;22.70;68.00;;;;;;5096551;28;20062;-34
2023/10/30 02:08:35;;;;;;;1.65;1.50;;;22.70;68.00;;;;;;5101177;28;20077;-34
2023/10/30 02:11:01;;;;;;;1.70;1.40;;;22.70;68.00;;;;;;5101077;28;20032;-34
2023/10/30 02:13:27;;;;;;;1.90;1.57;;;22.70;68.00;;;;;;5094593;28;20032;-35
2023/10/30 02:15:54;;;;;;;1.92;1.40;;;22.70;68.00;;;;;;5091989;28;20123;-34
2023/10/30 02:18:20;;;;;;;1.88;1.30;;;22.70;68.20;;;;;;5089360;28;20483;-35
2023/10/30 02:20:47;;;;;;;3.70;1.75;;;22.60;68.10;;;;;;5095095;28;20039;-34
2023/10/30 02:23:13;;;;;;;;;;;22.60;68.10;;;;;;5099452;28;20059;-35
2023/10/30 02:25:39;;;;;;;3.83;1.58;;;22.60;68.20;;;;;;5096464;28;19916;-34
2023/10/30 02:28:06;;;;;;;3.00;1.60;;;22.60;68.30;;;;;;5089843;28;20056;-34
2023/10/30 02:30:32;;;;;;;;;;;22.60;68.30;;;;;;5096363;28;20091;-34
2023/10/30 02:32:58;;;;;;;5.32;1.77;;;22.60;68.30;;;;;;5082921;28;19917;-35
2023/10/30 02:35:24;;;;;;;3.72;1.40;;;22.60;68.30;;;;;;5097287;28;20035;-34
2023/10/30 02:37:50;;;;;;;3.50;1.30;;;22.60;68.40;;;;;;5094862;28;20054;-34
2023/10/30 02:40:17;;;;;;;6.07;1.50;;;22.50;68.30;;;;;;5098544;28;20028;-35
2023/10/30 02:42:44;;;;;;;3.65;1.20;;;22.50;68.30;;;;;;5099759;28;20048;-34
2023/10/30 02:45:10;;;;;;;5.47;1.60;;;22.50;68.40;;;;;;5093100;28;20044;-34
2023/10/30 02:47:36;;;;;;;6.75;1.20;;;22.50;68.40;;;;;;5091528;28;20028;-34
2023/10/30 02:50:02;;;;;;;3.85;1.48;;;22.50;68.30;;;;;;5092127;28;20040;-35
2023/10/30 02:52:29;;;;;;;4.00;1.80;;;22.50;68.30;;;;;;5087828;28;20033;-34
2023/10/30 02:54:56;;;;;;;4.35;1.42;;;22.50;68.30;;;;;;5089287;28;20359;-34
2023/10/30 02:57:22;;;;;;;3.63;1.45;;;22.40;68.20;;;;;;5093935;28;20025;-34
2023/10/30 02:59:48;;;;;;;2.13;1.50;;;22.40;68.20;;;;;;5092152;28;20111;-34
2023/10/30 03:02:14;;;;;;;4.22;1.42;;;22.40;68.30;;;;;;5102746;28;20024;-35
2023/10/30 03:04:40;;;;;;;2.97;1.70;;;22.40;68.30;;;;;;5101760;28;20079;-35
2023/10/30 03:07:07;;;;;;;5.47;2.20;;;22.40;68.30;;;;;;5100230;28;20086;-35
2023/10/30 03:09:35;;;;;;;4.60;1.58;;;22.40;68.30;;;;;;5097909;28;20087;-34
2023/10/30 03:12:01;;;;;;;4.57;1.80;;;22.40;68.40;;;;;;5096896;28;20509;-34
2023/10/30 03:14:27;;;;;;;2.85;1.60;;;22.30;68.30;;;;;;5089323;28;20028;-34
2023/10/30 03:16:53;;;;;;;2.10;1.60;;;22.30;68.30;;;;;;5088217;28;20044;-35
2023/10/30 03:19:19;;;;;;;2.60;1.50;;;22.30;68.30;;;;;;5095952;28;20980;-35
2023/10/30 03:21:46;;;;;;;3.17;1.73;;;22.30;68.30;;;;;;5107182;28;20027;-34
2023/10/30 03:24:12;;;;;;;2.15;1.52;;;22.30;68.30;;;;;;5104197;28;20044;-34
2023/10/30 03:26:38;;;;;;;2.72;1.80;;;22.30;68.30;;;;;;5095821;28;20032;-34
2023/10/30 03:29:04;;;;;;;3.83;1.95;;;22.20;68.30;;;;;;5093783;28;20099;-34
2023/10/30 03:31:31;;;;;;;2.45;1.70;;;22.20;68.40;;;;;;5100699;28;20031;-34
2023/10/30 03:33:57;;;;;;;3.38;1.60;;;22.30;68.50;;;;;;5099549;28;20024;-33
2023/10/30 03:36:24;;;;;;;2.53;1.67;;;22.20;68.40;;;;;;5103013;28;20032;-34
2023/10/30 03:38:53;;;;;;;3.45;1.70;;;22.20;68.40;;;;;;5096489;28;20039;-34
2023/10/30 03:41:19;;;;;;;2.33;1.80;;;22.20;68.40;;;;;;5095143;28;20044;-34
2023/10/30 03:43:45;;;;;;;3.17;1.60;;;22.20;68.40;;;;;;5092934;28;20055;-34
2023/10/30 03:46:12;;;;;;;2.22;1.70;;;22.20;68.40;;;;;;5103801;28;20020;-34
2023/10/30 03:48:38;;;;;;;2.07;1.60;;;22.20;68.40;;;;;;5097197;28;20032;-34
2023/10/30 03:51:05;;;;;;;2.58;1.80;;;22.10;68.40;;;;;;5093073;28;20054;-35
2023/10/30 03:53:32;;;;;;;2.90;1.80;;;22.10;68.40;;;;;;5101809;28;20036;-35
2023/10/30 03:55:58;;;;;;;3.97;1.97;;;22.10;68.40;;;;;;5104840;28;20042;-34
2023/10/30 03:58:25;;;;;;;2.63;2.00;;;22.10;68.50;;;;;;5097251;28;21362;-34
2023/10/30 04:00:51;;;;;;;2.88;2.22;;;22.10;68.50;;;;;;5101142;28;20054;-34
2023/10/30 04:03:18;;;;;;;2.00;1.80;;;22.10;68.50;;;;;;5094662;28;20040;-34
2023/10/30 04:05:44;;;;;;;2.17;1.90;;;22.10;68.50;;;;;;5098156;28;20515;-35
2023/10/30 04:08:10;;;;;;;3.10;2.10;;;22.10;68.60;;;;;;5096267;28;20158;-34
2023/10/30 04:10:36;;;;;;;2.10;1.90;;;22.00;68.40;;;;;;5086201;28;20107;-34
2023/10/30 04:13:02;;;;;;;1.98;1.70;;;22.00;68.50;;;;;;5103662;28;20021;-35
2023/10/30 04:15:28;;;;;;;2.15;1.85;;;22.00;68.40;;;;;;5102756;28;20032;-34
2023/10/30 04:17:56;;;;;;;2.60;1.77;;;22.00;68.50;;;;;;5102489;28;20028;-34
2023/10/30 04:20:22;;;;;;;;;;;22.00;68.60;;;;;;5093636;28;20057;-33
2023/10/30 04:22:49;;;;;;;2.13;1.88;;;22.00;68.60;;;;;;5102598;28;19923;-33
2023/10/30 04:25:15;;;;;;;;;;;21.90;68.60;;;;;;5097704;28;20039;-34
2023/10/30 04:27:41;;;;;;;2.42;1.88;;;21.90;68.50;;;;;;5095171;28;20376;-34
2023/10/30 04:30:08;;;;;;;2.45;1.75;;;21.90;68.60;;;;;;5095180;28;20106;-34
2023/10/30 04:32:34;;;;;;;2.47;1.90;;;21.90;68.60;;;;;;5103067;28;20054;-34
2023/10/30 04:35:00;;;;;;;2.47;1.90;;;21.90;68.60;;;;;;5101436;28;20043;-34
2023/10/30 04:37:26;;;;;;;1.75;1.58;;;21.90;68.60;;;;;;5092185;28;20025;-34
2023/10/30 04:39:53;;;;;;;2.85;2.20;;;21.80;68.60;;;;;;5095961;28;20032;-35
2023/10/30 04:42:19;;;;;;;2.75;1.92;;;21.90;68.70;;;;;;5102107;28;20022;-35
2023/10/30 04:44:45;;;;;;;2.35;2.00;;;21.80;69.30;;;;;;5102442;28;20035;-34
2023/10/30 04:47:11;;;;;;;2.22;2.03;;;21.80;68.70;;;;;;5098302;28;20028;-35
2023/10/30 04:49:38;;;;;;;4.05;2.10;;;21.80;68.80;;;;;;5098373;28;20040;-35
2023/10/30 04:52:04;;;;;;;2.37;1.87;;;21.80;68.80;;;;;;5098254;28;20035;-34
2023/10/30 04:54:31;;;;;;;3.25;2.17;;;21.80;68.80;;;;;;5102622;28;20035;-34
2023/10/30 04:56:57;;;;;;;2.30;1.77;;;21.80;68.80;;;;;;5090256;28;20534;-34
2023/10/30 04:59:23;;;;;;;1.80;1.70;;;21.70;68.70;;;;;;5091321;28;20029;-35
2023/10/30 05:01:49;;;;;;;2.95;2.10;;;21.80;69.30;;;;;;5091135;28;20024;-35
2023/10/30 05:04:17;;;;;;;3.60;2.45;;;21.70;68.80;;;;;;5093371;28;20040;-35
2023/10/30 05:06:45;;;;;;;1.90;1.67;;;21.70;68.90;;;;;;5094132;28;20074;-34
2023/10/30 05:09:11;;;;;;;2.50;1.98;;;21.70;68.90;;;;;;5093416;28;20046;-33
2023/10/30 05:11:38;;;;;;;2.35;2.10;;;21.70;68.80;;;;;;5092673;28;20021;-35
2023/10/30 05:14:05;;;;;;;2.25;2.05;;;21.70;69.00;;;;;;5098842;28;20035;-35
2023/10/30 05:16:31;;;;;;;2.10;1.90;;;21.60;68.80;;;;;;5101667;28;20020;-34
2023/10/30 05:18:58;;;;;;;2.10;1.88;;;21.60;68.90;;;;;;5102316;28;20282;-33
2023/10/30 05:21:24;;;;;;;2.25;1.83;;;21.60;68.80;;;;;;5099252;28;20122;-34
2023/10/30 05:23:50;;;;;;;3.77;1.70;;;21.60;68.80;;;;;;5098763;28;20392;-34
2023/10/30 05:26:16;;;;;;;3.40;2.13;;;21.60;68.90;;;;;;5098978;28;20039;-34
2023/10/30 05:28:42;;;;;;;2.25;1.95;;;21.60;69.00;;;;;;5088099;28;20035;-33
2023/10/30 05:31:08;;;;;;;3.05;2.05;;;21.60;69.00;;;;;;5083821;28;20040;-35
2023/10/30 05:33:35;;;;;;;2.00;1.33;;;21.60;68.90;;;;;;5086275;28;20544;-34
2023/10/30 05:36:04;;;;;;;2.08;1.80;;;21.50;68.90;;;;;;5090927;28;20035;-35
2023/10/30 05:38:30;;;;;;;2.90;2.22;;;21.50;69.00;;;;;;5084357;28;20025;-35
2023/10/30 05:40:57;;;;;;;2.20;2.00;;;21.50;68.90;;;;;;5083496;28;20029;-35
2023/10/30 05:43:23;;;;;;;2.43;1.80;;;21.50;68.90;;;;;;5077119;28;20048;-35
2023/10/30 05:45:49;;;;;;;2.35;2.15;;;21.40;68.90;;;;;;5064854;28;20060;-35
2023/10/30 05:48:15;;;;;;;3.28;1.65;;;21.40;69.00;;;;;;5053435;28;20042;-35
2023/10/30 05:50:42;;;;;;;2.40;2.05;;;21.50;69.10;;;;;;5075016;28;20032;-35
2023/10/30 05:53:08;;;;;;;2.57;2.00;;;21.40;69.00;;;;;;5078520;28;20523;-35
2023/10/30 05:55:34;;;;;;;1.83;1.57;;;21.40;69.10;;;;;;5075511;28;20282;-35
2023/10/30 05:58:01;;;;;;;2.47;1.98;;;21.40;69.10;;;;;;5072696;28;20028;-34
2023/10/30 06:00:27;;;;;;;2.63;2.20;;;21.40;69.20;;;;;;5084197;28;20239;-33
2023/10/30 06:02:53;;;;;;;3.00;2.33;;;21.40;69.10;;;;;;5076111;28;20033;-34
2023/10/30 06:05:21;;;;;;;2.20;1.77;;;21.40;69.10;;;;;;5064724;28;21738;-34
2023/10/30 06:07:47;;;;;;;2.42;1.95;;;21.40;69.20;;;;;;5068893;28;20036;-34
2023/10/30 06:10:14;;;;;;;2.60;2.30;;;21.30;69.10;;;;;;5063069;28;20096;-34
2023/10/30 06:12:40;;;;;;;3.93;2.37;;;21.40;69.20;;;;;;5063012;28;20519;-34
2023/10/30 06:15:07;;;;;;;2.67;1.92;;;21.30;69.10;;;;;;5073225;28;20032;-34
2023/10/30 06:17:34;;;;;;;2.83;2.05;;;21.30;69.10;;;;;;5066391;28;20657;-34
2023/10/30 06:20:00;;;;;;;2.45;1.92;;;21.30;69.10;;;;;;5081274;28;20096;-33
2023/10/30 06:22:27;;;;;;;2.47;2.25;;;21.30;70.00;;;;;;5081208;28;20031;-34
2023/10/30 06:24:53;;;;;;;3.15;2.08;;;21.30;69.30;;;;;;5040615;28;20158;-34
2023/10/30 06:27:19;;;;;;;5.00;2.10;;;21.30;69.30;;;;;;5071442;28;20040;-34
2023/10/30 06:29:45;;;;;;;2.67;1.98;;;21.20;69.20;;;;;;5071604;28;20116;-34
2023/10/30 06:32:11;;;;;;;2.42;1.95;;;21.20;69.20;;;;;;5077327;28;20085;-35
2023/10/30 06:34:38;;;;;;;3.38;2.33;;;21.20;69.30;;;;;;5078460;28;20254;-34
2023/10/30 06:37:05;;;;;;;2.60;2.37;;;21.20;69.30;;;;;;5079247;28;20024;-34
2023/10/30 06:39:31;;;;;;;2.83;2.30;;;21.20;69.30;;;;;;5074959;28;20442;-34
2023/10/30 06:41:58;;;;;;;2.75;2.25;;;21.20;69.30;;;;;;5075480;28;20093;-34
2023/10/30 06:44:25;;;;;;;2.53;2.03;;;21.20;69.30;;;;;;5086754;28;20052;-34
2023/10/30 06:46:51;;;;;;;2.30;2.10;;;21.20;69.30;;;;;;5094841;28;20102;-34
2023/10/30 06:49:18;;;;;;;2.65;2.22;;;21.10;69.40;;;;;;5094627;28;20059;-34
2023/10/30 06:51:44;;;;;;;2.30;2.10;;;21.20;69.40;;;;;;5093643;28;20056;-34
2023/10/30 06:54:11;;;;;;;2.55;1.98;;;21.10;69.40;;;;;;5100906;28;20119;-34
2023/10/30 06:56:57;;;;;;;3.03;2.28;;;21.10;69.40;;;;;;5022294;28;20803;-34
2023/10/30 06:59:23;;;;;;;2.28;2.05;;;21.10;69.50;;;;;;5022557;28;20045;-34
2023/10/30 07:01:50;;;;;;;2.92;2.20;;;21.10;69.50;;;;;;5023279;28;20065;-34
2023/10/30 07:04:16;;;;;;;2.20;1.98;;;21.00;69.40;;;;;;5026216;28;20076;-34
2023/10/30 07:06:43;;;;;;;2.30;2.00;;;21.10;69.50;;;;;;5019613;28;20137;-33
2023/10/30 07:09:09;;;;;;;;;;;21.00;69.50;;;;;;5020353;28;20053;-33
2023/10/30 07:11:36;;;;;;;2.10;1.90;;;21.00;69.40;;;;;;5009229;28;19960;-34
2023/10/30 07:14:02;;;;;;;2.30;2.10;;;21.00;69.50;;;;;;5023621;28;20038;-33
2023/10/30 07:16:29;;;;;;;2.85;1.80;;;21.00;69.50;;;;;;5022367;28;20040;-34
2023/10/30 07:18:56;;;;;;;2.95;2.40;;;21.00;69.50;;;;;;5023483;28;20173;-34
2023/10/30 07:21:23;;;;;;;;;;;21.00;69.50;;;;;;5021452;28;20038;-33
2023/10/30 07:23:49;;;;;;;2.10;1.90;;;21.00;69.60;;;;;;5019492;28;19929;-34
2023/10/30 07:26:16;;;;;;;2.78;2.10;;;20.90;69.50;;;;;;5022620;28;20030;-33
2023/10/30 07:28:43;;;;;;;2.95;1.92;;;20.90;69.50;;;;;;5022430;28;20037;-34
2023/10/30 07:31:09;;;;;;;2.45;2.20;;;20.90;69.60;;;;;;5021993;28;20060;-34
2023/10/30 07:33:36;;;;;;;2.75;2.15;;;20.90;69.60;;;;;;5043117;28;20044;-34
2023/10/30 07:36:02;;;;;;;2.38;2.17;;;20.90;69.60;;;;;;5081587;28;20051;-34
2023/10/30 07:38:28;;;;;;;2.45;2.20;;;20.90;69.60;;;;;;5085377;28;20035;-35
2023/10/30 07:40:55;;;;;;;2.28;2.08;;;20.90;69.60;;;;;;5086002;28;20029;-34
2023/10/30 07:43:21;;;;;;;2.60;2.20;;;20.90;69.70;;;;;;5087423;28;20067;-34
2023/10/30 07:45:48;;;;;;;2.30;2.10;;;20.90;69.70;;;;;;5088290;28;20034;-34
2023/10/30 07:48:14;;;;;;;;;;;20.90;69.70;;;;;;5078916;28;20047;-34
2023/10/30 07:50:41;;;;;;;2.20;1.92;;;20.90;69.70;;;;;;5097404;28;19908;-33
2023/10/30 07:53:08;;;;;;;3.03;2.50;;;20.80;69.70;;;;;;5095754;28;20032;-34
2023/10/30 07:55:36;;;;;;;2.30;2.10;;;20.80;69.70;;;;;;5092174;28;20036;-34
2023/10/30 07:58:05;;;;;;;2.58;2.20;;;20.80;69.70;;;;;;5072496;28;20025;-34
2023/10/30 08:00:32;;;;;;;2.08;1.95;;;20.80;69.70;;;;;;5103864;28;20057;-34
2023/10/30 08:02:59;;;;;;;;;;;20.80;69.80;;;;;;5096980;28;20055;-34
2023/10/30 08:05:30;;;;;;;2.20;1.90;;;20.80;69.80;;;;;;5092051;28;19913;-34
2023/10/30 08:07:56;;;;;;;2.53;2.30;;;20.70;69.80;;;;;;5085144;28;20035;-33
2023/10/30 08:10:23;;;;;;;2.85;2.47;;;20.70;69.80;;;;;;5086836;28;20024;-34
2023/10/30 08:12:49;;;;;;;2.53;2.20;;;20.70;69.80;;;;;;5090962;28;20074;-34
2023/10/30 08:15:15;;;;;;;4.40;2.55;;;20.70;69.80;;;;;;5099893;28;20078;-34
2023/10/30 08:17:41;;;;;;;2.20;2.00;;;20.70;69.90;;;;;;5091170;28;20032;-34
2023/10/30 08:20:09;;;;;;;3.35;2.28;;;20.70;69.90;;;;;;5094394;28;20573;-34
2023/10/30 08:22:36;;;;;;;2.40;2.20;;;20.70;69.90;;;;;;5078044;28;20051;-34
2023/10/30 08:25:02;;;;;;;2.50;2.30;;;20.70;69.90;;;;;;5101957;28;20036;-34
2023/10/30 08:27:29;;;;;;;2.88;2.17;;;20.70;69.90;;;;;;5102013;28;20028;-33
2023/10/30 08:29:55;;;;;;;3.60;2.22;;;20.70;69.90;;;;;;5099414;28;20032;-35
2023/10/30 08:32:21;;;;;;;3.60;2.20;;;20.60;69.90;;;;;;5091355;28;20036;-35
2023/10/30 08:34:48;;;;;;;2.80;2.40;;;20.60;69.90;;;;;;5096186;28;20028;-35
2023/10/30 08:37:14;;;;;;;2.40;2.20;;;20.60;69.90;;;;;;5087385;28;20400;-34
2023/10/30 08:39:40;;;;;;;4.05;2.55;;;20.60;70.70;;;;;;5098710;28;20031;-34
2023/10/30 08:42:06;;;;;;;2.58;2.20;;;20.60;70.00;;;;;;5101382;28;20024;-34
2023/10/30 08:44:35;;;;;;;2.70;2.20;;;20.60;70.00;;;;;;5102485;28;20047;-34
2023/10/30 08:47:01;;;;;;;4.13;2.13;;;20.60;70.00;;;;;;5100560;28;20031;-34
2023/10/30 08:49:28;;;;;;;2.45;2.25;;;20.60;70.00;;;;;;5086569;28;20254;-34
2023/10/30 08:51:54;;;;;;;4.03;2.40;;;20.60;70.00;;;;;;5087428;28;20056;-34
2023/10/30 08:54:21;;;;;;;2.15;1.95;;;20.60;70.00;;;;;;5091218;28;20044;-34
2023/10/30 08:56:47;;;;;;;2.45;2.25;;;20.50;70.00;;;;;;5101310;28;20028;-34
2023/10/30 08:59:13;;;;;;;3.30;2.50;;;20.50;70.00;;;;;;5093496;28;20056;-34
2023/10/30 09:01:39;;;;;;;4.28;2.30;;;20.50;70.00;;;;;;5091075;28;20020;-34
2023/10/30 09:04:05;;;;;;;2.55;2.35;;;20.50;70.10;;;;;;5089994;28;20047;-34
2023/10/30 09:06:32;;;;;;;2.80;2.57;;;20.50;70.00;;;;;;5091951;28;20023;-34
2023/10/30 09:08:58;;;;;;;3.03;2.40;;;20.50;70.10;;;;;;5093505;28;20092;-34
2023/10/30 09:11:24;;;;;;;3.58;2.28;;;20.50;70.10;;;;;;5088077;28;20751;-34
2023/10/30 09:13:50;;;;;;;2.88;2.20;;;20.50;70.20;;;;;;5088600;28;20076;-34
2023/10/30 09:16:17;;;;;;;3.17;2.55;;;20.40;70.10;;;;;;5091710;28;20085;-34
2023/10/30 09:18:43;;;;;;;4.00;2.38;;;20.40;70.10;;;;;;5079069;28;20083;-34
2023/10/30 09:21:09;;;;;;;3.33;2.75;;;20.40;70.10;;;;;;5089760;28;20668;-34
2023/10/30 09:23:35;;;;;;;2.65;2.42;;;20.40;70.10;;;;;;5077216;28;20032;-35
2023/10/30 09:26:03;;;;;;;4.05;2.60;;;20.40;70.10;;;;;;5094140;28;20024;-35
2023/10/30 09:28:29;;;;;;;3.20;2.40;;;20.40;70.10;;;;;;5093337;28;20058;-34
2023/10/30 09:30:55;;;;;;;3.15;2.50;;;20.40;70.20;;;;;;5099027;28;20036;-34
2023/10/30 09:33:21;;;;;;;3.38;2.38;;;20.40;70.20;;;;;;5075424;28;20539;-34
2023/10/30 09:35:47;;;;;;;3.33;2.50;;;20.40;70.10;;;;;;5102143;28;20020;-34
2023/10/30 09:38:14;;;;;;;2.70;2.30;;;20.30;70.20;;;;;;5091669;28;20032;-34
2023/10/30 09:40:40;;;;;;;3.45;2.00;;;20.30;70.20;;;;;;5094932;28;20058;-34
2023/10/30 09:43:09;;;;;;;2.42;2.22;;;20.30;70.20;;;;;;5086051;28;20048;-34
2023/10/30 09:45:36;;;;;;;2.70;2.30;;;20.30;70.20;;;;;;5083461;28;20059;-35
2023/10/30 09:48:02;;;;;;;2.55;2.10;;;20.30;70.30;;;;;;5082054;28;20385;-34
2023/10/30 09:50:28;;;;;;;3.83;2.10;;;20.30;70.30;;;;;;5049105;28;20086;-34
2023/10/30 09:52:55;;;;;;;2.35;2.15;;;20.20;70.20;;;;;;5094348;28;20028;-34
2023/10/30 09:55:22;;;;;;;3.30;2.70;;;20.20;70.20;;;;;;5076673;28;20600;-34
2023/10/30 09:57:51;;;;;;;2.85;2.30;;;20.20;70.30;;;;;;5090594;28;20517;-34
2023/10/30 10:00:17;;;;;;;4.60;2.38;;;20.20;70.20;;;;;;5100657;28;20496;-34
2023/10/30 10:02:44;;;;;;;3.17;2.47;;;20.20;70.30;;;;;;5079334;28;20054;-34
2023/10/30 10:05:10;;;;;;;4.35;2.63;;;20.20;70.30;;;;;;5097878;28;20056;-34
2023/10/30 10:07:37;;;;;;;3.10;2.60;;;20.20;70.30;;;;;;5087318;28;20080;-34
2023/10/30 10:10:05;;;;;;;2.40;2.20;;;20.20;70.40;;;;;;5093842;28;20564;-34
2023/10/30 10:12:35;;;;;;;3.17;2.38;;;20.20;70.50;;;;;;5093444;28;20036;-34
2023/10/30 10:15:06;;;;;;;2.50;2.30;;;20.20;70.40;;;;;;5095969;28;20020;-34
2023/10/30 10:17:42;;;;;;;2.72;2.50;;;20.20;70.40;;;;;;5087368;28;20571;-34
2023/10/30 10:20:10;;;;;;;4.13;2.63;;;20.20;70.40;;;;;;5100442;28;20031;-34
2023/10/30 10:22:36;;;;;;;3.28;2.50;;;20.10;70.30;;;;;;5097766;28;20497;-34
2023/10/30 10:25:03;;;;;;;3.10;2.28;;;20.10;70.40;;;;;;5100196;28;20103;-35
2023/10/30 10:27:29;;;;;;;2.95;2.63;;;20.10;70.40;;;;;;5097808;28;20142;-34
2023/10/30 10:29:56;;;;;;;2.88;2.53;;;20.10;70.50;;;;;;5090180;28;20039;-35
2023/10/30 10:32:26;;;;;;;3.17;2.53;;;20.10;70.50;;;;;;5080448;28;20072;-35
2023/10/30 10:34:54;;;;;;;2.85;2.30;;;20.10;70.50;;;;;;5089218;28;20028;-35
2023/10/30 10:37:20;;;;;;;3.25;2.50;;;20.10;70.50;;;;;;5089377;28;20024;-35
2023/10/30 10:39:50;;;;;;;2.08;1.75;;;20.10;70.50;;;;;;5082677;28;20048;-34
2023/10/30 10:42:21;;;;;;;2.60;2.20;;;20.00;70.40;;;;;;5088444;28;20037;-34
2023/10/30 10:44:51;;;;;;;2.80;2.50;;;20.00;70.40;;;;;;5070824;28;20043;-35
2023/10/30 10:47:18;;;;;;;2.75;2.40;;;20.00;70.40;;;;;;5083430;28;20059;-35
2023/10/30 10:49:44;;;;;;;2.92;2.28;;;20.00;70.50;;;;;;5091012;28;20104;-34
2023/10/30 10:52:12;;;;;;;2.80;2.60;;;20.00;70.50;;;;;;5095016;28;20420;-33
2023/10/30 10:54:53;;;;;;;3.25;2.42;;;20.00;70.50;;;;;;5087047;28;20281;-34
2023/10/30 10:57:20;;;;;;;3.92;2.50;;;20.00;70.50;;;;;;5082927;28;20021;-34
2023/10/30 10:59:49;;;;;;;;;;;19.90;70.50;;;;;;5088196;28;20028;-34
2023/10/30 11:02:21;;;;;;;2.80;2.13;;;20.00;70.50;;;;;;5089153;28;20320;-34
2023/10/30 11:04:50;;;;;;;2.90;2.50;;;19.90;70.50;;;;;;5090201;28;20036;-34
2023/10/30 11:07:46;;;;;;;2.85;2.55;;;19.90;70.50;;;;;;5088390;28;20036;-33
2023/10/30 11:10:25;;;;;;;2.78;2.28;;;19.90;70.60;;;;;;5075718;28;20102;-34
2023/10/30 11:13:25;;;;;;;2.60;2.40;;;19.90;70.50;;;;;;5071478;28;20034;-33
2023/10/30 11:16:19;;;;;;;2.38;2.17;;;19.90;70.50;;;;;;5089108;28;20032;-33
2023/10/30 11:18:45;;;;;;;3.53;2.70;;;19.90;70.50;;;;;;5059197;28;20091;-34
2023/10/30 11:21:17;;;;;;;3.45;2.20;;;19.90;70.60;;;;;;5089075;28;20032;-34
2023/10/30 11:23:52;;;;;;;2.78;2.58;;;19.90;70.70;;;;;;5095456;28;20041;-34
2023/10/30 11:26:30;;;;;;;2.63;2.42;;;19.90;70.60;;;;;;5093628;28;20041;-35
2023/10/30 11:29:00;;;;;;;2.40;2.20;;;19.90;70.80;;;;;;5086431;28;20017;-34
2023/10/30 11:31:50;;;;;;;2.67;2.30;;;19.80;70.70;;;;;;5093602;28;20067;-35
2023/10/30 11:34:16;;;;;;;3.65;2.40;;;19.80;70.70;;;;;;5094245;28;20035;-35
2023/10/30 11:36:45;;;;;;;4.75;2.33;;;19.80;70.70;;;;;;5092844;28;20029;-35
2023/10/30 11:39:14;;;;;;;2.67;2.40;;;19.80;70.70;;;;;;5068538;28;20039;-35
2023/10/30 11:41:44;;;;;;;2.50;2.30;;;19.80;70.70;;;;;;5096557;28;20534;-35
2023/10/30 11:44:10;;;;;;;2.60;2.40;;;19.80;70.70;;;;;;5090495;28;20505;-33
2023/10/30 11:46:44;;;;;;;2.33;2.08;;;19.80;70.70;;;;;;5073549;28;20035;-34
2023/10/30 11:49:15;;;;;;;2.63;2.42;;;19.70;70.70;;;;;;5092935;28;20072;-33
2023/10/30 11:51:42;;;;;;;2.65;2.30;;;19.70;70.70;;;;;;5077611;28;20027;-34
2023/10/30 11:54:08;;;;;;;4.05;2.70;;;19.70;70.70;;;;;;5095993;28;20062;-35
2023/10/30 11:56:34;;;;;;;2.53;2.33;;;19.70;70.70;;;;;;5095751;28;20021;-34
2023/10/30 11:59:02;;;;;;;3.38;2.50;;;19.70;70.70;;;;;;5099882;28;20028;-35
2023/10/30 12:01:30;;;;;;;3.22;2.38;;;19.70;70.70;;;;;;5061072;28;20246;-34
2023/10/30 12:03:56;;;;;;;3.20;2.35;;;19.70;70.70;;;;;;5103150;28;20493;-38
2023/10/30 12:06:26;;;;;;;2.95;2.58;;;19.70;70.70;;;;;;5086718;28;20040;-33
2023/10/30 12:08:52;;;;;;;2.92;2.40;;;19.70;70.80;;;;;;5088089;28;20028;-34
2023/10/30 12:11:19;;;;;;;2.60;2.33;;;19.70;70.80;;;;;;5094434;28;20051;-34
2023/10/30 12:13:46;;;;;;;3.35;2.67;;;19.70;70.70;;;;;;5095297;28;20292;-34
2023/10/30 12:16:12;;;;;;;3.13;2.42;;;19.60;70.70;;;;;;5082659;28;20033;-34
2023/10/30 12:18:39;;;;;;;4.43;2.28;;;19.60;70.80;;;;;;5079792;28;20029;-34
2023/10/30 12:21:08;;;;;;;2.83;2.58;;;19.60;70.80;;;;;;5099660;28;20028;-34
2023/10/30 12:23:34;;;;;;;3.67;2.55;;;19.60;70.80;;;;;;5072792;28;20040;-35
2023/10/30 12:26:06;;;;;;;2.92;2.53;;;19.60;70.90;;;;;;5066444;28;20052;-34
2023/10/30 12:28:38;;;;;;;3.05;2.50;;;19.60;70.90;;;;;;5095161;28;20362;-35
2023/10/30 12:31:21;;;;;;;3.08;2.30;;;19.60;70.80;;;;;;5070916;28;20020;-34
2023/10/30 12:33:47;;;;;;;2.97;2.55;;;19.50;70.70;;;;;;5103423;28;20047;-34
2023/10/30 12:36:13;;;;;;;2.58;2.38;;;19.50;70.80;;;;;;5076982;28;20542;-36
2023/10/30 12:38:40;;;;;;;3.25;2.63;;;19.60;70.90;;;;;;5085186;28;20028;-35
2023/10/30 12:41:09;;;;;;;2.67;2.47;;;19.50;70.80;;;;;;5084632;28;20046;-35
2023/10/30 12:43:44;;;;;;;2.90;2.20;;;19.50;70.80;;;;;;5085845;28;20492;-34
2023/10/30 12:46:10;;;;;;;2.75;2.50;;;19.50;70.80;;;;;;5085112;28;20070;-34
2023/10/30 12:48:37;;;;;;;2.58;2.38;;;19.50;70.80;;;;;;5101630;28;20028;-34